Boston Harbor, Washington
Current Conditions -  °F | °C
As of 4:54 PM on Monday 24 Nov 2014 (Local Time) from KOLM Reporting Station
Light Rain Light Rain  
Wind Chill: 43°   Ceiling: 3400
Heat Index: 48°   Visibility: 3mi
Dew Point: 45°   Wind: 12mph
Humidity: 89%   Direction: 180°S
Pressure: 30.16"   Gusts: NA
Location:  46.9755°N, 122.872°W
Report Text: KOLM 250054Z 18010KT 3SM -RA BR SCT027 OVC034 09/07 A3016 RMK AO2 SLP215 P0009 T00890072
Loading
Personal Weather Stations






























Interactive Weather Map New forecast layout! Learn more

10-Day Weather Forecast

Advertisements
Track Severe Weather on mobile